Time;durP1;ratioP1;P1;durP2;ratioP2;P2;SDS_P1;SDS_P2;PMS_P1;PMS_P2;Temp;Humidity;BMP_temperature;BMP_pressure;BME280_temperature;BME280_humidity;BME280_pressure;Samples;Min_cycle;Max_cycle;Signal;HPM_P1;HPM_P2
2022/03/16 00:00:09;;;;;;;11.02;10.02;;;7.60;99.90;;;;;;5049851;28;20236;-61
2022/03/16 00:02:45;;;;;;;10.25;9.35;;;7.60;99.90;;;;;;5049880;28;20232;-61
2022/03/16 00:05:14;;;;;;;10.32;9.43;;;7.50;99.90;;;;;;5047621;28;20215;-61
2022/03/16 00:07:42;;;;;;;10.23;9.15;;;7.50;99.90;;;;;;5049217;28;20208;-61
2022/03/16 00:10:11;;;;;;;9.85;8.85;;;7.40;99.90;;;;;;5044559;28;20224;-61
2022/03/16 00:12:41;;;;;;;10.32;9.27;;;7.40;99.90;;;;;;5053176;28;20224;-60
2022/03/16 00:15:09;;;;;;;10.75;9.77;;;7.40;99.90;;;;;;5050982;28;20223;-61
2022/03/16 00:17:37;;;;;;;11.48;10.48;;;7.10;99.90;;;;;;5050688;28;20667;-60
2022/03/16 00:20:08;;;;;;;10.05;9.15;;;6.90;99.90;;;;;;5050975;28;20195;-61
2022/03/16 00:22:36;;;;;;;11.63;10.52;;;6.80;99.90;;;;;;5050555;28;20228;-61
2022/03/16 00:25:05;;;;;;;13.50;12.30;;;6.70;99.90;;;;;;5050577;28;20279;-61
2022/03/16 00:27:33;;;;;;;11.70;10.70;;;6.70;99.90;;;;;;5050997;28;20192;-61
2022/03/16 00:30:01;;;;;;;12.27;11.05;;;6.60;99.90;;;;;;5050887;28;20674;-61
2022/03/16 00:32:29;;;;;;;11.85;10.85;;;6.60;99.90;;;;;;5050616;28;20636;-61
2022/03/16 00:34:57;;;;;;;13.20;12.10;;;6.60;99.90;;;;;;5050703;28;20752;-61
2022/03/16 00:37:27;;;;;;;11.75;10.80;;;6.60;99.90;;;;;;5050754;28;20355;-61
2022/03/16 00:39:55;;;;;;;12.95;10.98;;;6.70;99.90;;;;;;5046628;28;20250;-61
2022/03/16 00:42:23;;;;;;;12.18;11.10;;;6.80;99.90;;;;;;5050211;28;20639;-61
2022/03/16 00:44:51;;;;;;;10.73;9.80;;;6.80;99.90;;;;;;5050463;28;20278;-61
2022/03/16 00:47:19;;;;;;;12.02;11.02;;;6.80;99.90;;;;;;5050699;28;20306;-61
2022/03/16 00:49:47;;;;;;;11.45;10.45;;;6.80;99.90;;;;;;5050468;28;20230;-62
2022/03/16 00:52:14;;;;;;;11.00;9.98;;;6.50;99.90;;;;;;5050222;28;20270;-63
2022/03/16 00:54:44;;;;;;;10.45;9.60;;;6.20;99.90;;;;;;5050674;28;20204;-61
2022/03/16 00:57:11;;;;;;;12.50;11.40;;;6.10;99.90;;;;;;5050649;28;20279;-61
2022/03/16 00:59:40;;;;;;;12.65;11.50;;;5.80;99.90;;;;;;5050424;28;20208;-62
2022/03/16 01:02:08;;;;;;;12.43;11.32;;;5.80;99.90;;;;;;5050102;28;20263;-61
2022/03/16 01:04:36;;;;;;;11.75;10.82;;;5.70;99.90;;;;;;5050411;28;20203;-60
2022/03/16 01:07:04;;;;;;;12.85;11.50;;;5.70;99.90;;;;;;5050702;28;20307;-61
2022/03/16 01:09:32;;;;;;;12.25;11.25;;;5.80;99.90;;;;;;5050341;28;20251;-61
2022/03/16 01:12:02;;;;;;;11.85;10.82;;;5.90;99.90;;;;;;5051925;28;20723;-61
2022/03/16 01:14:30;;;;;;;11.35;10.40;;;6.10;99.90;;;;;;5050303;28;20228;-61
2022/03/16 01:16:58;;;;;;;10.18;9.48;;;6.30;99.90;;;;;;5050418;28;20212;-60
2022/03/16 01:19:28;;;;;;;10.50;9.60;;;6.50;99.90;;;;;;5050428;28;20204;-61
2022/03/16 01:21:55;;;;;;;9.88;9.07;;;6.60;99.90;;;;;;5050286;28;20303;-60
2022/03/16 01:24:23;;;;;;;11.10;10.15;;;6.70;99.90;;;;;;5050389;28;20199;-60
2022/03/16 01:26:51;;;;;;;9.35;8.65;;;6.80;99.90;;;;;;5050336;28;20254;-61
2022/03/16 01:29:20;;;;;;;9.20;8.40;;;6.90;99.90;;;;;;5052737;28;20275;-61
2022/03/16 01:31:48;;;;;;;8.48;7.78;;;6.90;99.90;;;;;;5053724;28;20307;-60
2022/03/16 01:34:16;;;;;;;9.68;8.98;;;6.90;99.90;;;;;;5054075;28;20603;-60
2022/03/16 01:36:44;;;;;;;10.70;9.80;;;6.90;99.90;;;;;;5053964;28;20310;-60
2022/03/16 01:39:12;;;;;;;10.40;9.60;;;7.00;99.90;;;;;;5053977;28;20650;-61
2022/03/16 01:41:42;;;;;;;8.68;7.88;;;7.00;99.90;;;;;;5052462;28;20227;-60
2022/03/16 01:44:10;;;;;;;9.35;8.55;;;7.00;99.90;;;;;;5053175;28;20288;-60
2022/03/16 01:46:39;;;;;;;11.70;8.60;;;7.00;99.90;;;;;;5053433;28;20251;-60
2022/03/16 01:49:07;;;;;;;10.00;9.10;;;7.10;99.90;;;;;;5053463;28;21308;-60
2022/03/16 01:51:36;;;;;;;9.27;8.48;;;7.10;99.90;;;;;;5053569;28;20295;-60
2022/03/16 01:54:04;;;;;;;10.32;9.23;;;7.20;99.90;;;;;;5053507;28;20232;-61
2022/03/16 01:56:32;;;;;;;9.95;9.15;;;7.00;99.90;;;;;;5053425;28;20626;-61
2022/03/16 01:59:00;;;;;;;9.75;8.88;;;7.00;99.90;;;;;;5053052;28;20290;-60
2022/03/16 02:01:28;;;;;;;9.30;8.52;;;7.00;99.90;;;;;;5053188;28;20239;-60
2022/03/16 02:03:57;;;;;;;10.57;9.45;;;7.00;99.90;;;;;;5049788;28;20231;-61
2022/03/16 02:06:25;;;;;;;9.93;9.02;;;7.10;99.90;;;;;;5053307;28;20304;-62
2022/03/16 02:08:53;;;;;;;9.95;9.15;;;7.10;99.90;;;;;;5052993;28;20223;-61
2022/03/16 02:11:21;;;;;;;11.95;10.85;;;7.00;99.90;;;;;;5055661;28;20283;-61
2022/03/16 02:13:49;;;;;;;12.02;11.02;;;6.90;99.90;;;;;;5052461;28;20239;-61
2022/03/16 02:16:16;;;;;;;11.95;11.05;;;6.80;99.90;;;;;;5053074;28;20635;-61
2022/03/16 02:18:44;;;;;;;15.05;13.75;;;6.80;99.90;;;;;;5052981;28;20207;-61
2022/03/16 02:21:14;;;;;;;15.82;14.23;;;6.70;99.90;;;;;;5053053;28;20283;-61
2022/03/16 02:23:43;;;;;;;15.60;13.18;;;6.60;99.90;;;;;;5052482;28;20255;-61
2022/03/16 02:26:13;;;;;;;15.77;13.52;;;6.50;99.90;;;;;;5051472;28;20219;-61
2022/03/16 02:28:40;;;;;;;15.40;13.95;;;6.50;99.90;;;;;;5050688;28;20275;-61
2022/03/16 02:31:08;;;;;;;15.32;13.82;;;6.50;99.90;;;;;;5050372;28;20279;-61
2022/03/16 02:33:36;;;;;;;13.15;12.05;;;6.50;99.90;;;;;;5051496;28;20228;-62
2022/03/16 02:36:05;;;;;;;14.80;13.50;;;6.40;99.90;;;;;;5048533;28;20283;-60
2022/03/16 02:38:32;;;;;;;14.93;13.63;;;6.30;99.90;;;;;;5051573;28;20230;-61
2022/03/16 02:41:02;;;;;;;15.25;13.75;;;6.40;99.90;;;;;;5050995;28;20709;-61
2022/03/16 02:43:29;;;;;;;14.75;13.45;;;6.50;99.90;;;;;;5056872;28;20776;-61
2022/03/16 02:45:57;;;;;;;14.18;12.90;;;6.70;99.90;;;;;;5051700;28;20290;-61
2022/03/16 02:48:25;;;;;;;16.00;14.00;;;6.70;99.90;;;;;;5051378;28;20311;-61
2022/03/16 02:50:54;;;;;;;16.00;14.40;;;6.80;99.90;;;;;;5050021;28;20677;-60
2022/03/16 02:53:21;;;;;;;15.57;14.18;;;6.90;99.90;;;;;;5049877;28;20251;-61
2022/03/16 02:55:52;;;;;;;17.38;15.77;;;6.90;99.90;;;;;;5051175;28;20299;-61
2022/03/16 02:58:22;;;;;;;20.83;18.85;;;6.90;99.90;;;;;;5050775;28;20684;-61
2022/03/16 03:00:50;;;;;;;20.27;18.38;;;6.80;99.90;;;;;;5050713;28;20303;-61
2022/03/16 03:03:18;;;;;;;22.20;19.35;;;6.80;99.90;;;;;;5049556;28;20236;-60
2022/03/16 03:05:46;;;;;;;24.95;18.95;;;6.70;99.90;;;;;;5050501;28;20595;-61
2022/03/16 03:08:14;;;;;;;22.80;20.65;;;6.60;99.90;;;;;;5033323;28;20258;-61
2022/03/16 03:10:41;;;;;;;21.45;19.35;;;6.70;99.90;;;;;;5050952;28;20232;-61
2022/03/16 03:13:09;;;;;;;24.83;21.17;;;6.70;99.90;;;;;;5052152;28;20317;-60
2022/03/16 03:15:39;;;;;;;29.73;24.05;;;6.80;99.90;;;;;;5050445;28;20298;-61
2022/03/16 03:18:07;;;;;;;38.95;23.67;;;6.70;99.90;;;;;;5050494;28;20207;-60
2022/03/16 03:20:35;;;;;;;27.90;24.08;;;6.50;99.90;;;;;;5049811;28;20323;-60
2022/03/16 03:23:03;;;;;;;27.38;23.70;;;6.30;99.90;;;;;;5048270;28;20775;-61
2022/03/16 03:25:31;;;;;;;23.83;21.55;;;6.10;99.90;;;;;;5050637;28;20246;-61
2022/03/16 03:27:59;;;;;;;27.00;24.17;;;6.10;99.90;;;;;;5050767;28;20359;-61
2022/03/16 03:30:27;;;;;;;25.13;22.63;;;6.00;99.90;;;;;;5051038;28;20712;-61
2022/03/16 03:32:56;;;;;;;29.45;25.33;;;5.90;99.90;;;;;;5050155;28;20251;-61
2022/03/16 03:35:24;;;;;;;28.90;25.83;;;5.80;99.90;;;;;;5050062;28;20290;-61
2022/03/16 03:37:54;;;;;;;34.22;26.13;;;5.60;99.90;;;;;;5049625;28;20250;-62
2022/03/16 03:40:22;;;;;;;36.85;30.73;;;5.40;99.90;;;;;;5044917;28;20664;-61
2022/03/16 03:42:51;;;;;;;47.83;30.30;;;5.40;99.90;;;;;;5057611;28;20307;-61
2022/03/16 03:45:19;;;;;;;93.75;35.03;;;5.30;99.90;;;;;;5049780;28;20271;-61
2022/03/16 03:47:47;;;;;;;38.70;31.75;;;5.10;99.90;;;;;;5050621;28;20290;-61
2022/03/16 03:50:17;;;;;;;71.80;35.17;;;5.00;99.90;;;;;;5050266;28;20279;-62
2022/03/16 03:52:44;;;;;;;35.72;31.80;;;4.80;99.90;;;;;;5048556;28;20223;-62
2022/03/16 03:55:12;;;;;;;33.03;29.67;;;4.90;99.90;;;;;;5051276;28;20230;-61
2022/03/16 03:57:40;;;;;;;32.08;28.73;;;4.80;99.90;;;;;;5050898;28;20254;-61
2022/03/16 04:00:09;;;;;;;37.45;31.75;;;4.90;99.90;;;;;;5043615;28;20236;-61
2022/03/16 04:02:37;;;;;;;29.33;26.20;;;4.90;99.90;;;;;;5049687;28;20263;-61
2022/03/16 04:05:05;;;;;;;33.22;27.70;;;5.00;99.90;;;;;;5049700;28;20204;-61
2022/03/16 04:07:35;;;;;;;29.77;26.85;;;4.90;99.90;;;;;;5047652;28;20311;-62
2022/03/16 04:10:02;;;;;;;36.35;28.48;;;4.70;99.90;;;;;;5050213;28;20739;-61
2022/03/16 04:12:30;;;;;;;29.05;26.35;;;4.50;99.90;;;;;;5056004;28;20657;-61
2022/03/16 04:14:58;;;;;;;58.67;29.40;;;4.50;99.90;;;;;;5055649;28;20299;-62
2022/03/16 04:17:26;;;;;;;32.08;28.90;;;4.40;99.90;;;;;;5050119;28;20197;-62
2022/03/16 04:19:54;;;;;;;38.40;29.48;;;4.30;99.90;;;;;;5048580;28;20200;-61
2022/03/16 04:22:22;;;;;;;37.00;30.65;;;4.40;99.90;;;;;;5049931;28;20251;-62
2022/03/16 04:24:51;;;;;;;34.63;26.75;;;4.50;99.90;;;;;;5049046;28;20602;-62
2022/03/16 04:27:20;;;;;;;37.95;25.73;;;4.40;99.90;;;;;;5049109;28;20200;-62
2022/03/16 04:29:48;;;;;;;35.40;28.35;;;4.30;99.90;;;;;;5050219;28;20282;-61
2022/03/16 04:32:16;;;;;;;43.28;28.92;;;4.10;99.90;;;;;;5048140;28;20633;-61
2022/03/16 04:34:44;;;;;;;32.15;28.65;;;4.20;99.90;;;;;;5049546;28;20256;-61
2022/03/16 04:37:12;;;;;;;47.92;30.67;;;3.90;99.90;;;;;;5049884;28;20680;-60
2022/03/16 04:39:39;;;;;;;37.40;31.98;;;3.90;99.90;;;;;;5048629;28;20274;-61
2022/03/16 04:42:14;;;;;;;33.67;30.35;;;3.70;99.90;;;;;;5055329;28;20223;-61
2022/03/16 04:44:42;;;;;;;49.78;31.25;;;3.70;99.90;;;;;;5050378;28;20228;-61
2022/03/16 04:47:10;;;;;;;58.88;31.90;;;3.60;99.90;;;;;;5050357;28;20367;-61
2022/03/16 04:49:38;;;;;;;30.13;26.92;;;3.50;99.90;;;;;;5050640;28;20322;-62
2022/03/16 04:52:06;;;;;;;32.97;29.60;;;3.30;99.90;;;;;;5047607;28;20224;-62
2022/03/16 04:54:34;;;;;;;41.67;32.35;;;3.40;99.90;;;;;;5047353;28;20287;-62
2022/03/16 04:57:02;;;;;;;31.63;28.40;;;3.40;99.90;;;;;;5048466;28;20220;-62
2022/03/16 04:59:31;;;;;;;38.88;32.80;;;3.70;99.90;;;;;;5050011;28;20223;-62
2022/03/16 05:02:00;;;;;;;33.30;29.80;;;3.80;99.90;;;;;;5046759;28;20299;-61
2022/03/16 05:04:28;;;;;;;32.40;28.20;;;4.00;99.90;;;;;;5053511;28;20208;-61
2022/03/16 05:06:57;;;;;;;36.33;27.60;;;3.90;99.90;;;;;;5051015;28;20554;-62
2022/03/16 05:09:25;;;;;;;30.23;27.00;;;3.90;99.90;;;;;;5053402;28;20657;-62
2022/03/16 05:11:53;;;;;;;34.72;29.92;;;3.90;99.90;;;;;;5055107;28;20298;-61
2022/03/16 05:14:21;;;;;;;32.80;29.30;;;3.90;99.90;;;;;;5057496;28;20275;-62
2022/03/16 05:16:50;;;;;;;35.05;30.17;;;4.00;99.90;;;;;;5051933;28;20310;-62
2022/03/16 05:19:18;;;;;;;29.23;25.88;;;4.10;99.90;;;;;;5053316;28;20247;-61
2022/03/16 05:21:46;;;;;;;52.67;29.60;;;4.30;99.90;;;;;;5051531;28;20287;-61
2022/03/16 05:24:14;;;;;;;35.53;27.60;;;4.10;99.90;;;;;;5051969;28;20226;-61
2022/03/16 05:26:42;;;;;;;35.22;29.30;;;3.90;99.90;;;;;;5051636;28;20242;-61
2022/03/16 05:29:10;;;;;;;30.90;27.02;;;4.00;99.90;;;;;;5052323;28;20255;-61
2022/03/16 05:31:37;;;;;;;28.30;25.45;;;4.10;99.90;;;;;;5049306;28;20283;-61
2022/03/16 05:34:06;;;;;;;26.52;23.80;;;4.00;99.90;;;;;;5052363;28;20227;-61
2022/03/16 05:36:34;;;;;;;29.58;26.48;;;3.90;99.90;;;;;;5052682;28;20645;-61
2022/03/16 05:39:03;;;;;;;33.25;24.58;;;4.20;99.90;;;;;;5052383;28;20283;-61
2022/03/16 05:41:32;;;;;;;29.60;25.15;;;4.20;99.90;;;;;;5046237;28;20287;-63
2022/03/16 05:44:00;;;;;;;32.75;26.30;;;4.10;99.90;;;;;;5048895;28;20200;-62
2022/03/16 05:46:27;;;;;;;30.27;27.13;;;3.90;99.90;;;;;;5049044;28;20238;-62
2022/03/16 05:48:55;;;;;;;29.98;25.70;;;3.70;99.90;;;;;;5047989;28;20220;-64
2022/03/16 05:51:25;;;;;;;37.30;29.58;;;3.60;99.90;;;;;;5047048;28;20204;-63
2022/03/16 05:53:53;;;;;;;31.65;28.27;;;3.50;99.90;;;;;;5045812;28;20234;-62
2022/03/16 05:56:21;;;;;;;34.17;30.70;;;3.40;99.90;;;;;;5046134;28;20205;-62
2022/03/16 05:58:48;;;;;;;46.13;36.17;;;3.40;99.90;;;;;;5047070;28;20283;-62
2022/03/16 06:01:16;;;;;;;35.28;31.67;;;3.30;99.90;;;;;;5047975;28;20299;-62
2022/03/16 06:03:44;;;;;;;36.92;32.70;;;3.30;99.90;;;;;;5046118;28;20243;-62
2022/03/16 06:06:12;;;;;;;40.17;32.35;;;3.30;99.90;;;;;;5046811;28;20255;-62
2022/03/16 06:08:41;;;;;;;37.08;31.88;;;3.10;99.90;;;;;;5046876;28;20234;-63
2022/03/16 06:11:09;;;;;;;36.83;32.47;;;3.10;99.90;;;;;;5051492;28;20286;-62
2022/03/16 06:13:37;;;;;;;43.72;31.85;;;3.10;99.90;;;;;;5046805;28;20303;-63
2022/03/16 06:16:05;;;;;;;38.50;34.38;;;3.10;99.90;;;;;;5045700;28;20732;-63
2022/03/16 06:18:33;;;;;;;50.97;36.30;;;3.10;99.90;;;;;;5047565;28;20208;-63
2022/03/16 06:21:01;;;;;;;46.92;35.03;;;3.10;99.90;;;;;;5044191;28;20204;-63
2022/03/16 06:23:29;;;;;;;48.42;36.20;;;3.10;99.90;;;;;;5047604;28;20285;-62
2022/03/16 06:26:01;;;;;;;42.00;36.67;;;3.00;99.90;;;;;;5047402;28;20685;-62
2022/03/16 06:28:29;;;;;;;45.92;35.85;;;3.10;99.90;;;;;;5044216;28;20275;-64
2022/03/16 06:30:56;;;;;;;52.60;37.05;;;3.10;99.90;;;;;;5045841;28;20291;-63
2022/03/16 06:33:28;;;;;;;58.08;39.40;;;3.10;99.90;;;;;;5039233;28;20217;-63
2022/03/16 06:35:56;;;;;;;58.65;39.58;;;3.10;99.90;;;;;;5045142;28;20286;-62
2022/03/16 06:38:24;;;;;;;44.20;35.58;;;3.10;99.90;;;;;;5046972;28;20308;-62
2022/03/16 06:40:52;;;;;;;62.17;37.72;;;3.00;99.90;;;;;;5044264;28;20307;-62
2022/03/16 06:43:22;;;;;;;65.20;42.90;;;3.10;99.90;;;;;;5040845;28;20228;-62
2022/03/16 06:45:49;;;;;;;55.97;39.35;;;3.10;99.90;;;;;;5045178;28;20286;-62
2022/03/16 06:48:21;;;;;;;51.53;40.15;;;3.20;99.90;;;;;;5047135;28;20208;-62
2022/03/16 06:50:49;;;;;;;53.00;39.13;;;3.20;99.90;;;;;;5047075;28;20313;-62
2022/03/16 06:53:17;;;;;;;48.28;37.33;;;3.20;99.90;;;;;;5045967;28;20229;-61
2022/03/16 06:55:45;;;;;;;50.55;39.63;;;3.20;99.90;;;;;;5046294;28;20274;-62
2022/03/16 06:58:12;;;;;;;44.65;38.55;;;3.20;99.90;;;;;;5045442;28;20664;-62
2022/03/16 07:00:42;;;;;;;59.53;39.15;;;3.30;99.90;;;;;;5047031;28;20275;-62
2022/03/16 07:03:10;;;;;;;42.88;36.20;;;3.30;99.90;;;;;;5044638;28;20235;-63
2022/03/16 07:05:39;;;;;;;42.75;36.85;;;3.30;99.90;;;;;;5041915;28;20261;-62
2022/03/16 07:08:09;;;;;;;41.35;36.80;;;3.30;99.90;;;;;;5040907;28;20334;-62
2022/03/16 07:10:38;;;;;;;40.88;36.58;;;3.40;99.90;;;;;;5045021;28;20232;-62
2022/03/16 07:13:11;;;;;;;40.67;35.65;;;3.40;99.90;;;;;;5048376;28;20700;-62
2022/03/16 07:15:39;;;;;;;44.15;37.85;;;3.30;99.90;;;;;;5044929;28;20211;-62
2022/03/16 07:18:09;;;;;;;41.50;37.17;;;3.30;99.90;;;;;;5046694;28;20238;-62
2022/03/16 07:20:38;;;;;;;50.00;38.85;;;3.30;99.90;;;;;;5048623;28;20283;-62
2022/03/16 07:23:07;;;;;;;40.70;36.88;;;3.20;99.90;;;;;;5050628;28;20225;-62
2022/03/16 07:25:37;;;;;;;41.92;37.25;;;3.30;99.90;;;;;;5049871;28;20196;-62
2022/03/16 07:28:06;;;;;;;42.63;36.45;;;3.30;99.90;;;;;;5052182;28;20242;-63
2022/03/16 07:30:34;;;;;;;39.67;35.88;;;3.30;99.90;;;;;;5051304;28;20307;-63
2022/03/16 07:33:02;;;;;;;40.28;36.28;;;3.30;99.90;;;;;;5051728;28;20637;-62
2022/03/16 07:35:32;;;;;;;42.13;37.65;;;3.30;99.90;;;;;;5051748;28;20212;-62
2022/03/16 07:38:01;;;;;;;41.20;37.00;;;3.30;99.90;;;;;;5051536;28;20657;-62
2022/03/16 07:40:31;;;;;;;39.53;35.78;;;3.40;99.90;;;;;;5051417;28;20580;-63
2022/03/16 07:42:59;;;;;;;39.13;35.47;;;3.40;99.90;;;;;;5051995;28;20235;-62
2022/03/16 07:45:27;;;;;;;39.67;35.75;;;3.40;99.90;;;;;;5049737;28;20204;-62
2022/03/16 07:47:56;;;;;;;38.58;34.88;;;3.50;99.90;;;;;;5051784;28;20243;-63
2022/03/16 07:50:24;;;;;;;38.58;35.05;;;3.50;99.90;;;;;;5051283;28;20259;-63
2022/03/16 07:52:54;;;;;;;37.00;33.53;;;3.60;99.90;;;;;;5051343;28;20247;-62
2022/03/16 07:55:22;;;;;;;36.13;32.60;;;3.60;99.90;;;;;;5051341;28;20227;-62
2022/03/16 07:57:50;;;;;;;36.67;33.00;;;3.70;99.90;;;;;;5051524;28;20200;-62
2022/03/16 08:00:18;;;;;;;30.48;27.77;;;3.80;99.90;;;;;;5051198;28;20200;-63
2022/03/16 08:02:46;;;;;;;31.75;28.80;;;3.70;99.90;;;;;;5050868;28;20669;-62
2022/03/16 08:05:15;;;;;;;31.17;28.38;;;3.80;99.90;;;;;;5051205;28;20307;-63
2022/03/16 08:07:43;;;;;;;30.90;28.30;;;3.80;99.90;;;;;;5051144;28;20290;-62
2022/03/16 08:10:12;;;;;;;30.52;27.83;;;4.00;99.90;;;;;;5051410;28;20294;-63
2022/03/16 08:12:40;;;;;;;30.33;27.75;;;4.20;99.90;;;;;;5050964;28;20247;-62
2022/03/16 08:15:09;;;;;;;27.90;25.50;;;4.30;99.90;;;;;;5052335;28;20204;-62
2022/03/16 08:17:36;;;;;;;26.75;24.38;;;4.60;99.90;;;;;;5051033;28;20247;-62
2022/03/16 08:20:06;;;;;;;24.17;22.20;;;4.80;99.90;;;;;;5051199;28;20238;-63
2022/03/16 08:22:35;;;;;;;27.20;24.90;;;5.10;99.90;;;;;;5050809;28;20254;-62
2022/03/16 08:25:05;;;;;;;25.27;23.13;;;5.20;99.90;;;;;;5050893;28;20393;-63
2022/03/16 08:27:35;;;;;;;23.05;21.08;;;5.40;99.90;;;;;;5051114;28;20231;-63
2022/03/16 08:30:04;;;;;;;22.92;20.88;;;5.60;99.90;;;;;;5051040;28;20216;-63
2022/03/16 08:32:32;;;;;;;22.90;21.00;;;5.60;99.90;;;;;;5050687;28;20290;-62
2022/03/16 08:35:00;;;;;;;20.40;18.80;;;5.70;99.90;;;;;;5050777;28;20282;-63
2022/03/16 08:37:28;;;;;;;22.50;20.55;;;5.70;99.90;;;;;;5051423;28;20541;-63
2022/03/16 08:39:55;;;;;;;22.02;20.15;;;5.70;99.90;;;;;;5054699;28;20235;-62
2022/03/16 08:42:23;;;;;;;22.05;20.33;;;5.80;99.90;;;;;;5055061;28;20644;-62
2022/03/16 08:44:53;;;;;;;20.10;18.40;;;5.90;99.90;;;;;;5059162;28;20254;-64
2022/03/16 08:47:21;;;;;;;22.40;20.42;;;6.10;99.90;;;;;;5054806;28;20299;-63
2022/03/16 08:49:51;;;;;;;21.60;19.77;;;6.40;99.90;;;;;;5054849;28;20231;-63
2022/03/16 08:52:19;;;;;;;19.88;18.13;;;6.70;99.90;;;;;;5054979;28;20227;-63
2022/03/16 08:54:47;;;;;;;19.80;18.10;;;6.80;99.90;;;;;;5055012;28;20290;-62
2022/03/16 08:57:15;;;;;;;20.35;18.60;;;7.10;99.90;;;;;;5054718;28;20306;-63
2022/03/16 08:59:43;;;;;;;20.38;18.67;;;7.20;99.90;;;;;;5054664;28;20200;-63
2022/03/16 09:02:12;;;;;;;19.85;18.20;;;7.20;99.90;;;;;;5054295;28;20945;-63
2022/03/16 09:04:41;;;;;;;23.25;21.00;;;7.20;99.90;;;;;;5048312;28;20691;-62
2022/03/16 09:07:08;;;;;;;20.38;18.58;;;7.30;99.90;;;;;;5048032;28;20286;-62
2022/03/16 09:09:39;;;;;;;22.13;20.13;;;7.50;99.90;;;;;;5048671;28;20587;-63
2022/03/16 09:12:09;;;;;;;22.13;19.92;;;7.60;99.90;;;;;;5054198;28;20707;-62
2022/03/16 09:14:37;;;;;;;21.00;19.10;;;7.60;99.90;;;;;;5054687;28;20684;-64
2022/03/16 09:17:05;;;;;;;19.23;17.42;;;7.60;99.90;;;;;;5048311;28;20234;-63
2022/03/16 09:19:35;;;;;;;21.95;19.85;;;7.60;99.90;;;;;;5054219;28;20278;-63
2022/03/16 09:22:04;;;;;;;22.42;20.33;;;7.50;99.90;;;;;;5053975;28;20310;-62
2022/03/16 09:24:33;;;;;;;23.48;21.13;;;7.70;99.90;;;;;;5054215;28;20211;-62
2022/03/16 09:27:02;;;;;;;21.92;19.92;;;7.90;99.90;;;;;;5054128;28;20665;-63
2022/03/16 09:29:30;;;;;;;23.40;21.20;;;8.10;99.90;;;;;;5053965;28;20278;-63
2022/03/16 09:32:07;;;;;;;21.65;19.65;;;8.30;99.90;;;;;;5053570;28;20606;-63
2022/03/16 09:34:38;;;;;;;21.05;19.15;;;8.60;99.90;;;;;;5054222;28;20212;-63
2022/03/16 09:37:06;;;;;;;20.95;18.95;;;8.70;99.90;;;;;;5053798;28;20236;-63
2022/03/16 09:39:34;;;;;;;21.60;19.60;;;8.80;99.90;;;;;;5054132;28;20618;-63
2022/03/16 09:42:03;;;;;;;22.38;20.33;;;9.10;99.90;;;;;;5053780;28;20235;-63
2022/03/16 09:44:32;;;;;;;20.65;18.75;;;9.40;99.90;;;;;;5057114;28;20230;-63
2022/03/16 09:47:01;;;;;;;21.63;19.60;;;9.50;99.90;;;;;;5053138;28;20196;-63
2022/03/16 09:49:29;;;;;;;19.27;17.58;;;9.60;99.90;;;;;;5053507;28;20295;-62
2022/03/16 09:52:02;;;;;;;19.17;17.42;;;9.80;99.90;;;;;;5053548;28;20314;-63
2022/03/16 09:54:30;;;;;;;19.02;17.15;;;9.90;99.90;;;;;;5053902;28;20200;-63
2022/03/16 09:56:58;;;;;;;20.55;18.52;;;10.20;99.90;;;;;;5053549;28;20208;-63
2022/03/16 09:59:26;;;;;;;21.42;19.50;;;10.30;99.90;;;;;;5053730;28;20261;-63
2022/03/16 10:02:06;;;;;;;18.70;16.50;;;10.50;99.90;;;;;;5053180;28;20712;-63
2022/03/16 10:04:36;;;;;;;19.13;17.42;;;10.70;99.90;;;;;;5053679;28;20257;-63
2022/03/16 10:07:06;;;;;;;18.40;16.70;;;11.00;99.90;;;;;;5047358;28;20287;-63
2022/03/16 10:15:10;;;;;;;19.33;17.45;;;11.10;99.90;;;;;;5053231;28;20200;-62
2022/03/16 10:17:45;;;;;;;20.88;18.88;;;11.10;99.90;;;;;;5053102;28;20204;-62
2022/03/16 10:20:26;;;;;;;19.17;17.50;;;11.00;99.90;;;;;;5053201;28;20291;-63
2022/03/16 10:22:57;;;;;;;17.98;16.38;;;11.20;99.90;;;;;;5053057;28;20289;-63
2022/03/16 10:25:25;;;;;;;20.40;18.30;;;11.30;99.90;;;;;;5053091;28;20266;-64
2022/03/16 10:28:10;;;;;;;19.55;17.83;;;11.40;99.90;;;;;;5052984;28;20660;-63
2022/03/16 10:30:40;;;;;;;19.15;17.45;;;11.50;99.90;;;;;;5053056;28;20210;-63
2022/03/16 10:33:08;;;;;;;18.70;17.05;;;11.60;99.90;;;;;;5052733;28;20692;-63
2022/03/16 10:35:36;;;;;;;18.77;17.08;;;11.60;99.90;;;;;;5052853;28;20633;-63
2022/03/16 10:38:13;;;;;;;18.90;17.35;;;11.70;99.90;;;;;;5052996;28;20283;-63
2022/03/16 10:40:41;;;;;;;18.50;16.90;;;11.70;99.90;;;;;;5046670;28;20291;-63
2022/03/16 10:49:00;;;;;;;20.73;18.70;;;12.10;99.90;;;;;;5052520;28;20212;-63
2022/03/16 10:51:27;;;;;;;18.77;17.13;;;12.30;99.90;;;;;;5052678;28;20337;-63
2022/03/16 10:54:15;;;;;;;20.20;18.38;;;12.50;99.90;;;;;;5052616;28;20287;-63
2022/03/16 10:56:45;;;;;;;19.38;17.73;;;12.40;99.90;;;;;;5052470;28;20200;-64
2022/03/16 10:59:14;;;;;;;19.67;17.80;;;12.60;99.90;;;;;;5052913;28;20303;-63
2022/03/16 11:01:43;;;;;;;19.10;17.25;;;12.60;99.90;;;;;;5033224;28;20253;-63
2022/03/16 11:04:11;;;;;;;19.27;17.48;;;12.90;99.90;;;;;;5053578;28;20246;-63
2022/03/16 11:06:41;;;;;;;19.17;17.48;;;13.00;99.90;;;;;;5052348;28;20232;-63
2022/03/16 11:09:10;;;;;;;17.90;16.40;;;13.00;99.90;;;;;;5052437;28;20644;-63
2022/03/16 11:14:27;;;;;;;19.25;17.45;;;13.10;99.90;;;;;;5057624;28;20257;-62
2022/03/16 11:16:55;;;;;;;17.63;16.13;;;13.30;99.90;;;;;;5051792;28;20196;-63
2022/03/16 11:19:24;;;;;;;18.15;16.58;;;13.50;99.90;;;;;;5051880;28;20204;-63
2022/03/16 11:22:02;;;;;;;18.15;16.55;;;13.70;99.90;;;;;;5052139;28;20247;-63
2022/03/16 11:24:35;;;;;;;17.65;16.08;;;13.70;99.90;;;;;;5052058;28;20200;-63
2022/03/16 11:27:35;;;;;;;18.52;16.83;;;13.70;99.90;;;;;;5051744;28;20290;-63
2022/03/16 11:30:27;;;;;;;18.80;17.10;;;13.70;99.90;;;;;;5051966;28;20234;-63
2022/03/16 11:33:00;;;;;;;16.52;15.23;;;13.90;99.90;;;;;;5047059;28;20674;-63
2022/03/16 11:35:32;;;;;;;16.75;15.27;;;14.00;99.90;;;;;;5051983;28;20663;-63
2022/03/16 11:38:02;;;;;;;17.13;15.35;;;14.40;99.90;;;;;;5051399;28;20231;-63
2022/03/16 11:40:31;;;;;;;18.20;16.48;;;14.50;99.90;;;;;;5052050;28;20653;-63
2022/03/16 11:43:21;;;;;;;15.95;14.55;;;14.70;99.90;;;;;;5044843;28;20402;-63
2022/03/16 11:45:54;;;;;;;15.68;14.38;;;14.90;99.90;;;;;;5052805;28;20685;-65
2022/03/16 11:48:45;;;;;;;17.05;15.63;;;14.90;99.90;;;;;;5051474;28;20622;-62
2022/03/16 11:51:24;;;;;;;16.10;14.60;;;15.10;99.90;;;;;;5045972;28;20649;-62
2022/03/16 11:54:05;;;;;;;15.80;14.40;;;15.30;99.90;;;;;;5051188;28;20314;-62
2022/03/16 11:56:44;;;;;;;16.90;15.50;;;15.60;99.90;;;;;;5051208;28;20714;-62
2022/03/16 11:59:32;;;;;;;16.33;14.93;;;15.60;99.90;;;;;;5051403;28;20227;-62
2022/03/16 12:02:10;;;;;;;15.27;13.88;;;15.50;99.90;;;;;;5050742;28;20315;-63
2022/03/16 12:04:40;;;;;;;16.55;15.15;;;15.60;99.90;;;;;;5051490;28;20218;-62
2022/03/16 12:07:11;;;;;;;15.50;14.20;;;15.60;99.90;;;;;;5051277;28;20223;-62
2022/03/16 12:09:44;;;;;;;16.98;15.38;;;15.10;99.90;;;;;;5051722;28;20306;-62
2022/03/16 12:15:17;;;;;;;18.70;17.10;;;14.00;99.90;;;;;;5055642;28;20257;-64
2022/03/16 12:18:31;;;;;;;16.98;15.32;;;13.50;99.90;;;;;;5051017;28;20290;-64
2022/03/16 12:21:03;;;;;;;17.92;16.42;;;13.30;99.90;;;;;;5051278;28;20242;-62
2022/03/16 12:23:54;;;;;;;18.23;16.52;;;12.90;99.90;;;;;;5051212;28;20226;-62
2022/03/16 12:26:25;;;;;;;19.50;17.77;;;12.70;99.90;;;;;;5050937;28;20203;-62
2022/03/16 12:29:03;;;;;;;19.88;18.15;;;12.80;99.90;;;;;;5051252;28;20275;-62
2022/03/16 12:31:34;;;;;;;18.50;16.77;;;13.10;99.90;;;;;;5050901;28;20282;-63
2022/03/16 12:34:02;;;;;;;17.25;15.75;;;13.50;99.90;;;;;;5050983;28;20204;-63
2022/03/16 12:36:31;;;;;;;17.50;15.95;;;13.60;99.90;;;;;;5050844;28;20657;-63
2022/03/16 12:39:03;;;;;;;17.85;16.25;;;13.60;99.90;;;;;;5051038;28;20218;-62
2022/03/16 12:44:18;;;;;;;18.60;16.88;;;14.20;99.90;;;;;;5051265;28;20650;-63
2022/03/16 12:46:56;;;;;;;16.52;15.10;;;14.70;99.90;;;;;;5050401;28;20220;-63
2022/03/16 12:49:24;;;;;;;17.70;16.30;;;15.00;99.90;;;;;;5050824;28;20701;-63
2022/03/16 12:51:54;;;;;;;16.48;15.07;;;15.00;99.90;;;;;;5050404;28;20307;-63
2022/03/16 12:54:28;;;;;;;15.88;14.57;;;15.20;99.90;;;;;;5044191;28;20752;-64
2022/03/16 12:57:01;;;;;;;15.65;14.35;;;15.30;99.90;;;;;;5050610;28;20246;-64
2022/03/16 12:59:32;;;;;;;16.35;14.90;;;15.60;99.90;;;;;;5051142;28;20291;-63
2022/03/16 13:02:03;;;;;;;20.45;16.42;;;15.60;99.90;;;;;;5050212;28;20318;-63
2022/03/16 13:04:32;;;;;;;15.95;14.50;;;15.70;99.90;;;;;;5050683;28;20238;-64
2022/03/16 13:07:01;;;;;;;16.80;15.13;;;15.80;99.90;;;;;;5050457;28;20235;-63